sensor_id;sensor_type;location;lat;lon;timestamp;P1;durP1;ratioP1;P2;durP2;ratioP2
43952;SDS011;29608;49.400;11.010;2022-11-15T00:01:14;2.28;;;1.48;;
43952;SDS011;29608;49.400;11.010;2022-11-15T00:03:45;1.40;;;1.40;;
43952;SDS011;29608;49.400;11.010;2022-11-15T00:06:13;1.27;;;1.27;;
43952;SDS011;29608;49.400;11.010;2022-11-15T00:08:41;3.10;;;1.40;;
43952;SDS011;29608;49.400;11.010;2022-11-15T00:11:09;1.02;;;1.02;;
43952;SDS011;29608;49.400;11.010;2022-11-15T00:13:39;1.33;;;1.23;;
43952;SDS011;29608;49.400;11.010;2022-11-15T00:16:08;1.58;;;1.40;;
43952;SDS011;29608;49.400;11.010;2022-11-15T00:18:37;1.20;;;1.13;;
43952;SDS011;29608;49.400;11.010;2022-11-15T00:21:07;1.40;;;1.30;;
43952;SDS011;29608;49.400;11.010;2022-11-15T00:23:38;1.50;;;1.08;;
43952;SDS011;29608;49.400;11.010;2022-11-15T00:26:07;1.85;;;1.50;;
43952;SDS011;29608;49.400;11.010;2022-11-15T00:28:40;1.13;;;0.98;;
43952;SDS011;29608;49.400;11.010;2022-11-15T00:31:10;1.58;;;1.48;;
43952;SDS011;29608;49.400;11.010;2022-11-15T00:33:42;2.08;;;1.35;;
43952;SDS011;29608;49.400;11.010;2022-11-15T00:36:13;1.48;;;1.20;;
43952;SDS011;29608;49.400;11.010;2022-11-15T00:38:41;2.88;;;1.02;;
43952;SDS011;29608;49.400;11.010;2022-11-15T00:41:09;1.20;;;1.05;;
43952;SDS011;29608;49.400;11.010;2022-11-15T00:43:37;1.45;;;1.35;;
43952;SDS011;29608;49.400;11.010;2022-11-15T00:46:06;1.45;;;1.35;;
43952;SDS011;29608;49.400;11.010;2022-11-15T00:48:35;1.40;;;1.30;;
43952;SDS011;29608;49.400;11.010;2022-11-15T00:51:03;1.67;;;1.10;;
43952;SDS011;29608;49.400;11.010;2022-11-15T00:53:32;2.30;;;1.50;;
43952;SDS011;29608;49.400;11.010;2022-11-15T00:56:00;1.20;;;1.10;;
43952;SDS011;29608;49.400;11.010;2022-11-15T00:58:28;1.40;;;1.05;;
43952;SDS011;29608;49.400;11.010;2022-11-15T01:00:56;1.27;;;1.27;;
43952;SDS011;29608;49.400;11.010;2022-11-15T01:03:33;3.28;;;1.60;;
43952;SDS011;29608;49.400;11.010;2022-11-15T01:06:01;4.00;;;2.40;;
43952;SDS011;29608;49.400;11.010;2022-11-15T01:08:30;1.40;;;1.20;;
43952;SDS011;29608;49.400;11.010;2022-11-15T01:11:01;1.88;;;1.27;;
43952;SDS011;29608;49.400;11.010;2022-11-15T01:13:31;1.42;;;1.33;;
43952;SDS011;29608;49.400;11.010;2022-11-15T01:16:05;1.70;;;1.60;;
43952;SDS011;29608;49.400;11.010;2022-11-15T01:18:35;1.40;;;1.27;;
43952;SDS011;29608;49.400;11.010;2022-11-15T01:21:04;1.05;;;1.02;;
43952;SDS011;29608;49.400;11.010;2022-11-15T01:23:34;1.20;;;1.20;;
43952;SDS011;29608;49.400;11.010;2022-11-15T01:26:04;1.98;;;1.50;;
43952;SDS011;29608;49.400;11.010;2022-11-15T01:28:37;1.55;;;1.30;;
43952;SDS011;29608;49.400;11.010;2022-11-15T01:31:09;1.08;;;0.98;;
43952;SDS011;29608;49.400;11.010;2022-11-15T01:33:41;1.13;;;1.10;;
43952;SDS011;29608;49.400;11.010;2022-11-15T01:36:10;1.40;;;1.27;;
43952;SDS011;29608;49.400;11.010;2022-11-15T01:38:41;1.33;;;1.23;;
43952;SDS011;29608;49.400;11.010;2022-11-15T01:41:15;1.23;;;1.17;;
43952;SDS011;29608;49.400;11.010;2022-11-15T01:43:46;1.45;;;1.35;;
43952;SDS011;29608;49.400;11.010;2022-11-15T01:46:20;1.65;;;1.15;;
43952;SDS011;29608;49.400;11.010;2022-11-15T01:48:56;1.38;;;1.27;;
43952;SDS011;29608;49.400;11.010;2022-11-15T01:51:31;1.77;;;1.52;;
43952;SDS011;29608;49.400;11.010;2022-11-15T01:54:01;1.50;;;1.40;;
43952;SDS011;29608;49.400;11.010;2022-11-15T01:56:37;1.52;;;1.00;;
43952;SDS011;29608;49.400;11.010;2022-11-15T01:59:13;1.05;;;1.05;;
43952;SDS011;29608;49.400;11.010;2022-11-15T02:01:42;1.48;;;1.33;;
43952;SDS011;29608;49.400;11.010;2022-11-15T02:04:11;1.20;;;1.10;;
43952;SDS011;29608;49.400;11.010;2022-11-15T02:06:44;1.33;;;1.23;;
43952;SDS011;29608;49.400;11.010;2022-11-15T02:09:15;1.27;;;1.25;;
43952;SDS011;29608;49.400;11.010;2022-11-15T02:11:45;1.20;;;1.20;;
43952;SDS011;29608;49.400;11.010;2022-11-15T02:14:16;1.58;;;1.17;;
43952;SDS011;29608;49.400;11.010;2022-11-15T02:16:48;1.63;;;1.20;;
43952;SDS011;29608;49.400;11.010;2022-11-15T02:19:29;0.93;;;0.93;;
43952;SDS011;29608;49.400;11.010;2022-11-15T02:22:42;1.02;;;1.02;;
43952;SDS011;29608;49.400;11.010;2022-11-15T02:28:30;1.77;;;1.60;;
43952;SDS011;29608;49.400;11.010;2022-11-15T02:31:13;1.23;;;1.15;;
43952;SDS011;29608;49.400;11.010;2022-11-15T02:33:54;1.20;;;1.02;;
43952;SDS011;29608;49.400;11.010;2022-11-15T02:36:37;2.33;;;1.10;;
43952;SDS011;29608;49.400;11.010;2022-11-15T02:39:15;1.35;;;1.25;;
43952;SDS011;29608;49.400;11.010;2022-11-15T02:41:51;2.22;;;1.30;;
43952;SDS011;29608;49.400;11.010;2022-11-15T02:44:29;1.50;;;1.40;;
43952;SDS011;29608;49.400;11.010;2022-11-15T02:47:06;1.33;;;1.23;;
43952;SDS011;29608;49.400;11.010;2022-11-15T02:49:43;1.35;;;1.23;;
43952;SDS011;29608;49.400;11.010;2022-11-15T02:52:15;1.40;;;1.30;;
43952;SDS011;29608;49.400;11.010;2022-11-15T02:54:52;1.30;;;1.20;;
43952;SDS011;29608;49.400;11.010;2022-11-15T02:57:23;1.20;;;1.20;;
43952;SDS011;29608;49.400;11.010;2022-11-15T03:00:07;1.50;;;1.23;;
43952;SDS011;29608;49.400;11.010;2022-11-15T03:02:52;1.35;;;1.25;;
43952;SDS011;29608;49.400;11.010;2022-11-15T03:05:41;1.38;;;1.27;;
43952;SDS011;29608;49.400;11.010;2022-11-15T03:08:21;1.13;;;1.10;;
43952;SDS011;29608;49.400;11.010;2022-11-15T03:11:01;1.38;;;1.27;;
43952;SDS011;29608;49.400;11.010;2022-11-15T03:13:37;1.33;;;1.20;;
43952;SDS011;29608;49.400;11.010;2022-11-15T03:16:18;1.10;;;1.10;;
43952;SDS011;29608;49.400;11.010;2022-11-15T03:18:57;1.13;;;1.08;;
43952;SDS011;29608;49.400;11.010;2022-11-15T03:21:34;1.23;;;1.10;;
43952;SDS011;29608;49.400;11.010;2022-11-15T03:24:07;1.33;;;1.33;;
43952;SDS011;29608;49.400;11.010;2022-11-15T03:26:37;1.40;;;1.30;;
43952;SDS011;29608;49.400;11.010;2022-11-15T03:29:09;2.28;;;1.20;;
43952;SDS011;29608;49.400;11.010;2022-11-15T03:31:43;1.35;;;1.25;;
43952;SDS011;29608;49.400;11.010;2022-11-15T03:34:20;1.10;;;1.10;;
43952;SDS011;29608;49.400;11.010;2022-11-15T03:36:54;1.25;;;1.20;;
43952;SDS011;29608;49.400;11.010;2022-11-15T03:39:23;1.35;;;1.25;;
43952;SDS011;29608;49.400;11.010;2022-11-15T03:41:56;1.15;;;1.15;;
43952;SDS011;29608;49.400;11.010;2022-11-15T03:44:38;1.30;;;1.20;;
43952;SDS011;29608;49.400;11.010;2022-11-15T03:47:15;1.20;;;1.10;;
43952;SDS011;29608;49.400;11.010;2022-11-15T03:49:50;1.30;;;1.20;;
43952;SDS011;29608;49.400;11.010;2022-11-15T03:52:24;1.20;;;1.10;;
43952;SDS011;29608;49.400;11.010;2022-11-15T03:54:52;1.10;;;1.10;;
43952;SDS011;29608;49.400;11.010;2022-11-15T03:57:23;1.58;;;1.48;;
43952;SDS011;29608;49.400;11.010;2022-11-15T03:59:51;1.40;;;1.10;;
43952;SDS011;29608;49.400;11.010;2022-11-15T04:02:19;1.13;;;1.02;;
43952;SDS011;29608;49.400;11.010;2022-11-15T04:04:47;1.23;;;1.23;;
43952;SDS011;29608;49.400;11.010;2022-11-15T04:07:16;1.40;;;1.30;;
43952;SDS011;29608;49.400;11.010;2022-11-15T04:09:44;1.40;;;1.30;;
43952;SDS011;29608;49.400;11.010;2022-11-15T04:12:32;1.00;;;1.00;;
43952;SDS011;29608;49.400;11.010;2022-11-15T04:15:03;1.10;;;1.10;;
43952;SDS011;29608;49.400;11.010;2022-11-15T04:17:35;1.23;;;1.15;;
43952;SDS011;29608;49.400;11.010;2022-11-15T04:20:07;1.40;;;1.30;;
43952;SDS011;29608;49.400;11.010;2022-11-15T04:22:57;1.33;;;1.23;;
43952;SDS011;29608;49.400;11.010;2022-11-15T04:25:45;3.42;;;1.42;;
43952;SDS011;29608;49.400;11.010;2022-11-15T04:28:16;1.23;;;1.00;;
43952;SDS011;29608;49.400;11.010;2022-11-15T04:30:45;1.27;;;1.27;;
43952;SDS011;29608;49.400;11.010;2022-11-15T04:33:13;1.90;;;1.50;;
43952;SDS011;29608;49.400;11.010;2022-11-15T04:35:42;1.17;;;1.02;;
43952;SDS011;29608;49.400;11.010;2022-11-15T04:38:31;1.13;;;1.10;;
43952;SDS011;29608;49.400;11.010;2022-11-15T04:41:00;1.30;;;1.20;;
43952;SDS011;29608;49.400;11.010;2022-11-15T04:43:28;1.10;;;1.10;;
43952;SDS011;29608;49.400;11.010;2022-11-15T04:45:57;1.05;;;0.98;;
43952;SDS011;29608;49.400;11.010;2022-11-15T04:48:25;0.93;;;0.93;;
43952;SDS011;29608;49.400;11.010;2022-11-15T04:50:53;1.23;;;1.20;;
43952;SDS011;29608;49.400;11.010;2022-11-15T04:53:21;1.08;;;1.02;;
43952;SDS011;29608;49.400;11.010;2022-11-15T04:55:50;2.47;;;1.10;;
43952;SDS011;29608;49.400;11.010;2022-11-15T04:58:18;1.10;;;1.10;;
43952;SDS011;29608;49.400;11.010;2022-11-15T05:00:46;1.15;;;1.15;;
43952;SDS011;29608;49.400;11.010;2022-11-15T05:03:14;1.10;;;1.10;;
43952;SDS011;29608;49.400;11.010;2022-11-15T05:05:59;1.20;;;1.10;;
43952;SDS011;29608;49.400;11.010;2022-11-15T05:08:28;1.30;;;1.20;;
43952;SDS011;29608;49.400;11.010;2022-11-15T05:10:57;1.08;;;1.08;;
43952;SDS011;29608;49.400;11.010;2022-11-15T05:13:25;1.10;;;1.10;;
43952;SDS011;29608;49.400;11.010;2022-11-15T05:15:52;1.63;;;1.30;;
43952;SDS011;29608;49.400;11.010;2022-11-15T05:18:20;1.48;;;1.38;;
43952;SDS011;29608;49.400;11.010;2022-11-15T05:20:49;1.13;;;1.13;;
43952;SDS011;29608;49.400;11.010;2022-11-15T05:23:17;1.48;;;1.10;;
43952;SDS011;29608;49.400;11.010;2022-11-15T05:25:44;1.10;;;1.10;;
43952;SDS011;29608;49.400;11.010;2022-11-15T05:28:14;1.00;;;1.00;;
43952;SDS011;29608;49.400;11.010;2022-11-15T05:30:41;1.30;;;1.27;;
43952;SDS011;29608;49.400;11.010;2022-11-15T05:33:10;1.27;;;1.20;;
43952;SDS011;29608;49.400;11.010;2022-11-15T05:35:39;1.67;;;1.15;;
43952;SDS011;29608;49.400;11.010;2022-11-15T05:38:10;1.27;;;1.17;;
43952;SDS011;29608;49.400;11.010;2022-11-15T05:40:38;1.10;;;1.10;;
43952;SDS011;29608;49.400;11.010;2022-11-15T05:43:05;1.00;;;1.00;;
43952;SDS011;29608;49.400;11.010;2022-11-15T05:45:35;1.50;;;1.40;;
43952;SDS011;29608;49.400;11.010;2022-11-15T05:48:04;1.20;;;1.20;;
43952;SDS011;29608;49.400;11.010;2022-11-15T05:50:36;1.10;;;1.10;;
43952;SDS011;29608;49.400;11.010;2022-11-15T05:53:08;1.40;;;1.30;;
43952;SDS011;29608;49.400;11.010;2022-11-15T05:55:38;1.10;;;1.10;;
43952;SDS011;29608;49.400;11.010;2022-11-15T05:58:07;1.05;;;1.02;;
43952;SDS011;29608;49.400;11.010;2022-11-15T06:00:37;1.10;;;1.10;;
43952;SDS011;29608;49.400;11.010;2022-11-15T06:03:05;0.95;;;0.95;;
43952;SDS011;29608;49.400;11.010;2022-11-15T06:05:32;0.90;;;0.90;;
43952;SDS011;29608;49.400;11.010;2022-11-15T06:08:00;1.67;;;1.58;;
43952;SDS011;29608;49.400;11.010;2022-11-15T06:10:28;1.33;;;1.23;;
43952;SDS011;29608;49.400;11.010;2022-11-15T06:12:56;1.00;;;1.00;;
43952;SDS011;29608;49.400;11.010;2022-11-15T06:15:25;1.17;;;1.10;;
43952;SDS011;29608;49.400;11.010;2022-11-15T06:17:56;1.23;;;1.17;;
43952;SDS011;29608;49.400;11.010;2022-11-15T06:20:25;1.10;;;1.10;;
43952;SDS011;29608;49.400;11.010;2022-11-15T06:22:58;1.40;;;1.30;;
43952;SDS011;29608;49.400;11.010;2022-11-15T06:25:28;1.30;;;1.20;;
43952;SDS011;29608;49.400;11.010;2022-11-15T06:27:57;1.10;;;1.10;;
43952;SDS011;29608;49.400;11.010;2022-11-15T06:30:26;1.17;;;1.17;;
43952;SDS011;29608;49.400;11.010;2022-11-15T06:33:02;1.20;;;1.13;;
43952;SDS011;29608;49.400;11.010;2022-11-15T06:35:33;0.98;;;0.98;;
43952;SDS011;29608;49.400;11.010;2022-11-15T06:38:02;1.30;;;1.20;;
43952;SDS011;29608;49.400;11.010;2022-11-15T06:40:32;1.40;;;1.30;;
43952;SDS011;29608;49.400;11.010;2022-11-15T06:43:02;0.98;;;0.98;;
43952;SDS011;29608;49.400;11.010;2022-11-15T06:45:31;1.50;;;1.40;;
43952;SDS011;29608;49.400;11.010;2022-11-15T06:47:59;1.30;;;1.20;;
43952;SDS011;29608;49.400;11.010;2022-11-15T06:50:28;0.95;;;0.95;;
43952;SDS011;29608;49.400;11.010;2022-11-15T06:53:00;1.00;;;1.00;;
43952;SDS011;29608;49.400;11.010;2022-11-15T06:55:31;1.17;;;1.10;;
43952;SDS011;29608;49.400;11.010;2022-11-15T06:57:59;1.88;;;1.25;;
43952;SDS011;29608;49.400;11.010;2022-11-15T07:00:26;1.05;;;1.05;;
43952;SDS011;29608;49.400;11.010;2022-11-15T07:02:54;2.15;;;1.30;;
43952;SDS011;29608;49.400;11.010;2022-11-15T07:05:26;1.67;;;1.30;;
43952;SDS011;29608;49.400;11.010;2022-11-15T07:07:56;1.52;;;1.42;;
43952;SDS011;29608;49.400;11.010;2022-11-15T07:10:25;1.13;;;1.10;;
43952;SDS011;29608;49.400;11.010;2022-11-15T07:12:54;1.55;;;1.45;;
43952;SDS011;29608;49.400;11.010;2022-11-15T07:15:24;1.40;;;1.30;;
43952;SDS011;29608;49.400;11.010;2022-11-15T07:17:53;1.20;;;1.20;;
43952;SDS011;29608;49.400;11.010;2022-11-15T07:20:29;2.20;;;2.00;;
43952;SDS011;29608;49.400;11.010;2022-11-15T07:22:59;2.45;;;2.25;;
43952;SDS011;29608;49.400;11.010;2022-11-15T07:25:28;2.00;;;1.90;;
43952;SDS011;29608;49.400;11.010;2022-11-15T07:27:56;2.58;;;2.38;;
43952;SDS011;29608;49.400;11.010;2022-11-15T07:30:26;3.15;;;2.28;;
43952;SDS011;29608;49.400;11.010;2022-11-15T07:32:54;2.70;;;2.50;;
43952;SDS011;29608;49.400;11.010;2022-11-15T07:35:23;3.03;;;2.63;;
43952;SDS011;29608;49.400;11.010;2022-11-15T07:37:56;2.80;;;2.60;;
43952;SDS011;29608;49.400;11.010;2022-11-15T07:40:27;2.42;;;2.22;;
43952;SDS011;29608;49.400;11.010;2022-11-15T07:43:00;2.38;;;2.20;;
43952;SDS011;29608;49.400;11.010;2022-11-15T07:45:29;2.83;;;2.63;;
43952;SDS011;29608;49.400;11.010;2022-11-15T07:47:59;4.25;;;2.40;;
43952;SDS011;29608;49.400;11.010;2022-11-15T07:50:27;2.72;;;2.53;;
43952;SDS011;29608;49.400;11.010;2022-11-15T07:52:59;2.72;;;2.53;;
43952;SDS011;29608;49.400;11.010;2022-11-15T07:55:27;2.60;;;2.40;;
43952;SDS011;29608;49.400;11.010;2022-11-15T07:57:59;2.35;;;2.15;;
43952;SDS011;29608;49.400;11.010;2022-11-15T08:00:29;3.40;;;2.33;;
43952;SDS011;29608;49.400;11.010;2022-11-15T08:03:02;3.95;;;2.15;;
43952;SDS011;29608;49.400;11.010;2022-11-15T08:05:31;2.22;;;2.08;;
43952;SDS011;29608;49.400;11.010;2022-11-15T08:08:00;1.95;;;1.77;;
43952;SDS011;29608;49.400;11.010;2022-11-15T08:10:29;1.98;;;1.88;;
43952;SDS011;29608;49.400;11.010;2022-11-15T08:13:06;1.98;;;1.85;;
43952;SDS011;29608;49.400;11.010;2022-11-15T08:18:05;3.35;;;1.55;;
43952;SDS011;29608;49.400;11.010;2022-11-15T08:20:38;3.40;;;1.60;;
43952;SDS011;29608;49.400;11.010;2022-11-15T08:23:10;2.28;;;2.08;;
43952;SDS011;29608;49.400;11.010;2022-11-15T08:25:39;1.73;;;1.60;;
43952;SDS011;29608;49.400;11.010;2022-11-15T08:28:07;2.08;;;1.88;;
43952;SDS011;29608;49.400;11.010;2022-11-15T08:30:38;1.73;;;1.40;;
43952;SDS011;29608;49.400;11.010;2022-11-15T08:33:12;1.38;;;1.27;;
43952;SDS011;29608;49.400;11.010;2022-11-15T08:35:41;3.25;;;1.90;;
43952;SDS011;29608;49.400;11.010;2022-11-15T08:38:12;2.22;;;1.70;;
43952;SDS011;29608;49.400;11.010;2022-11-15T08:40:40;1.55;;;1.45;;
43952;SDS011;29608;49.400;11.010;2022-11-15T08:43:08;3.65;;;1.60;;
43952;SDS011;29608;49.400;11.010;2022-11-15T08:45:36;2.10;;;1.77;;
43952;SDS011;29608;49.400;11.010;2022-11-15T08:48:04;2.03;;;1.60;;
43952;SDS011;29608;49.400;11.010;2022-11-15T08:50:32;2.53;;;2.03;;
43952;SDS011;29608;49.400;11.010;2022-11-15T08:53:03;1.80;;;1.70;;
43952;SDS011;29608;49.400;11.010;2022-11-15T08:55:35;2.03;;;1.52;;
43952;SDS011;29608;49.400;11.010;2022-11-15T08:58:04;1.92;;;1.67;;
43952;SDS011;29608;49.400;11.010;2022-11-15T09:00:32;4.07;;;1.40;;
43952;SDS011;29608;49.400;11.010;2022-11-15T09:03:03;1.42;;;1.33;;
43952;SDS011;29608;49.400;11.010;2022-11-15T09:05:31;1.95;;;1.75;;
43952;SDS011;29608;49.400;11.010;2022-11-15T09:07:59;1.73;;;1.48;;
43952;SDS011;29608;49.400;11.010;2022-11-15T09:10:49;3.05;;;1.88;;
43952;SDS011;29608;49.400;11.010;2022-11-15T09:13:17;1.73;;;1.63;;
43952;SDS011;29608;49.400;11.010;2022-11-15T09:15:45;1.60;;;1.50;;
43952;SDS011;29608;49.400;11.010;2022-11-15T09:18:13;1.52;;;1.42;;
43952;SDS011;29608;49.400;11.010;2022-11-15T09:20:41;1.42;;;1.33;;
43952;SDS011;29608;49.400;11.010;2022-11-15T09:23:08;2.10;;;1.90;;
43952;SDS011;29608;49.400;11.010;2022-11-15T09:25:36;1.55;;;1.45;;
43952;SDS011;29608;49.400;11.010;2022-11-15T09:28:07;1.60;;;1.40;;
43952;SDS011;29608;49.400;11.010;2022-11-15T09:30:35;1.48;;;1.38;;
43952;SDS011;29608;49.400;11.010;2022-11-15T09:33:06;1.40;;;1.30;;
43952;SDS011;29608;49.400;11.010;2022-11-15T09:35:35;1.42;;;1.33;;
43952;SDS011;29608;49.400;11.010;2022-11-15T09:38:03;2.28;;;1.27;;
43952;SDS011;29608;49.400;11.010;2022-11-15T09:40:31;1.70;;;1.60;;
43952;SDS011;29608;49.400;11.010;2022-11-15T09:43:06;1.48;;;1.33;;
43952;SDS011;29608;49.400;11.010;2022-11-15T09:45:55;1.27;;;1.20;;
43952;SDS011;29608;49.400;11.010;2022-11-15T09:48:41;1.70;;;1.40;;
43952;SDS011;29608;49.400;11.010;2022-11-15T09:51:18;2.55;;;1.20;;
43952;SDS011;29608;49.400;11.010;2022-11-15T09:53:57;1.30;;;1.20;;
43952;SDS011;29608;49.400;11.010;2022-11-15T09:56:55;1.67;;;1.58;;
43952;SDS011;29608;49.400;11.010;2022-11-15T09:59:46;1.90;;;1.77;;
43952;SDS011;29608;49.400;11.010;2022-11-15T10:05:39;2.97;;;1.10;;
43952;SDS011;29608;49.400;11.010;2022-11-15T10:08:17;2.92;;;1.17;;
43952;SDS011;29608;49.400;11.010;2022-11-15T10:11:02;1.40;;;1.30;;
43952;SDS011;29608;49.400;11.010;2022-11-15T10:13:55;2.03;;;1.25;;
43952;SDS011;29608;49.400;11.010;2022-11-15T10:19:35;1.20;;;0.98;;
43952;SDS011;29608;49.400;11.010;2022-11-15T10:22:21;1.25;;;1.20;;
43952;SDS011;29608;49.400;11.010;2022-11-15T10:25:10;1.30;;;1.20;;
43952;SDS011;29608;49.400;11.010;2022-11-15T10:27:47;2.20;;;1.50;;
43952;SDS011;29608;49.400;11.010;2022-11-15T10:30:22;1.20;;;1.20;;
43952;SDS011;29608;49.400;11.010;2022-11-15T10:32:58;1.40;;;1.30;;
43952;SDS011;29608;49.400;11.010;2022-11-15T10:35:38;1.88;;;1.08;;
43952;SDS011;29608;49.400;11.010;2022-11-15T10:38:06;1.42;;;1.33;;
43952;SDS011;29608;49.400;11.010;2022-11-15T10:40:36;1.30;;;1.20;;
43952;SDS011;29608;49.400;11.010;2022-11-15T10:43:14;0.80;;;0.80;;
43952;SDS011;29608;49.400;11.010;2022-11-15T10:45:45;1.30;;;1.20;;
43952;SDS011;29608;49.400;11.010;2022-11-15T10:48:26;1.13;;;1.10;;
43952;SDS011;29608;49.400;11.010;2022-11-15T10:50:54;1.33;;;1.23;;
43952;SDS011;29608;49.400;11.010;2022-11-15T10:53:29;0.90;;;0.90;;
43952;SDS011;29608;49.400;11.010;2022-11-15T10:56:06;1.27;;;1.05;;
43952;SDS011;29608;49.400;11.010;2022-11-15T10:58:39;0.98;;;0.93;;
43952;SDS011;29608;49.400;11.010;2022-11-15T11:01:12;0.98;;;0.95;;
43952;SDS011;29608;49.400;11.010;2022-11-15T11:03:59;1.10;;;1.10;;
43952;SDS011;29608;49.400;11.010;2022-11-15T11:06:28;1.30;;;1.20;;
43952;SDS011;29608;49.400;11.010;2022-11-15T11:08:58;1.25;;;1.10;;
43952;SDS011;29608;49.400;11.010;2022-11-15T11:11:45;1.33;;;1.27;;
43952;SDS011;29608;49.400;11.010;2022-11-15T11:14:17;2.05;;;1.02;;
43952;SDS011;29608;49.400;11.010;2022-11-15T11:16:50;1.30;;;1.20;;
43952;SDS011;29608;49.400;11.010;2022-11-15T11:19:38;0.90;;;0.90;;
43952;SDS011;29608;49.400;11.010;2022-11-15T11:22:20;0.93;;;0.93;;
43952;SDS011;29608;49.400;11.010;2022-11-15T11:24:59;1.10;;;1.10;;
43952;SDS011;29608;49.400;11.010;2022-11-15T11:27:45;1.63;;;1.08;;
43952;SDS011;29608;49.400;11.010;2022-11-15T11:30:31;1.27;;;1.17;;
43952;SDS011;29608;49.400;11.010;2022-11-15T11:33:18;1.33;;;1.23;;
43952;SDS011;29608;49.400;11.010;2022-11-15T11:35:59;2.83;;;1.10;;
43952;SDS011;29608;49.400;11.010;2022-11-15T11:38:45;1.40;;;1.00;;
43952;SDS011;29608;49.400;11.010;2022-11-15T11:41:37;1.20;;;1.10;;
43952;SDS011;29608;49.400;11.010;2022-11-15T11:44:18;1.05;;;1.02;;
43952;SDS011;29608;49.400;11.010;2022-11-15T11:46:59;0.98;;;0.98;;
43952;SDS011;29608;49.400;11.010;2022-11-15T11:49:33;1.05;;;1.05;;
43952;SDS011;29608;49.400;11.010;2022-11-15T11:52:11;0.73;;;0.73;;
43952;SDS011;29608;49.400;11.010;2022-11-15T11:54:50;0.80;;;0.80;;
43952;SDS011;29608;49.400;11.010;2022-11-15T11:57:31;1.40;;;1.30;;
43952;SDS011;29608;49.400;11.010;2022-11-15T12:00:14;1.20;;;1.10;;
43952;SDS011;29608;49.400;11.010;2022-11-15T12:02:48;1.10;;;1.10;;
43952;SDS011;29608;49.400;11.010;2022-11-15T12:05:32;1.25;;;1.15;;
43952;SDS011;29608;49.400;11.010;2022-11-15T12:08:17;1.65;;;1.20;;
43952;SDS011;29608;49.400;11.010;2022-11-15T12:11:06;0.90;;;0.90;;
43952;SDS011;29608;49.400;11.010;2022-11-15T12:13:41;0.80;;;0.80;;
43952;SDS011;29608;49.400;11.010;2022-11-15T12:16:12;1.00;;;1.00;;
43952;SDS011;29608;49.400;11.010;2022-11-15T12:18:47;1.33;;;1.23;;
43952;SDS011;29608;49.400;11.010;2022-11-15T12:21:21;1.00;;;0.90;;
43952;SDS011;29608;49.400;11.010;2022-11-15T12:24:04;0.88;;;0.88;;
43952;SDS011;29608;49.400;11.010;2022-11-15T12:26:40;0.90;;;0.90;;
43952;SDS011;29608;49.400;11.010;2022-11-15T12:29:15;0.88;;;0.88;;
43952;SDS011;29608;49.400;11.010;2022-11-15T12:31:51;1.13;;;0.98;;
43952;SDS011;29608;49.400;11.010;2022-11-15T12:37:34;1.38;;;1.10;;
43952;SDS011;29608;49.400;11.010;2022-11-15T12:40:27;1.35;;;1.25;;
43952;SDS011;29608;49.400;11.010;2022-11-15T12:42:59;1.10;;;1.10;;
43952;SDS011;29608;49.400;11.010;2022-11-15T12:45:32;1.10;;;0.80;;
43952;SDS011;29608;49.400;11.010;2022-11-15T12:51:20;1.30;;;1.20;;
43952;SDS011;29608;49.400;11.010;2022-11-15T12:57:29;0.95;;;0.95;;
43952;SDS011;29608;49.400;11.010;2022-11-15T13:03:25;1.05;;;0.90;;
43952;SDS011;29608;49.400;11.010;2022-11-15T13:06:00;2.25;;;1.02;;
43952;SDS011;29608;49.400;11.010;2022-11-15T13:21:05;1.20;;;0.90;;
43952;SDS011;29608;49.400;11.010;2022-11-15T13:24:09;1.15;;;0.95;;
43952;SDS011;29608;49.400;11.010;2022-11-15T13:26:44;1.20;;;1.10;;
43952;SDS011;29608;49.400;11.010;2022-11-15T13:29:16;1.05;;;1.00;;
43952;SDS011;29608;49.400;11.010;2022-11-15T13:31:46;3.33;;;0.95;;
43952;SDS011;29608;49.400;11.010;2022-11-15T13:34:16;2.10;;;0.90;;
43952;SDS011;29608;49.400;11.010;2022-11-15T13:37:27;0.80;;;0.80;;
43952;SDS011;29608;49.400;11.010;2022-11-15T13:40:10;2.15;;;0.98;;
43952;SDS011;29608;49.400;11.010;2022-11-15T13:42:49;0.80;;;0.80;;
43952;SDS011;29608;49.400;11.010;2022-11-15T13:45:18;1.38;;;0.90;;
43952;SDS011;29608;49.400;11.010;2022-11-15T13:47:56;3.28;;;1.20;;
43952;SDS011;29608;49.400;11.010;2022-11-15T13:50:26;1.13;;;0.85;;
43952;SDS011;29608;49.400;11.010;2022-11-15T13:53:01;1.23;;;0.98;;
43952;SDS011;29608;49.400;11.010;2022-11-15T13:55:31;1.02;;;1.02;;
43952;SDS011;29608;49.400;11.010;2022-11-15T13:58:02;0.82;;;0.82;;
43952;SDS011;29608;49.400;11.010;2022-11-15T14:00:35;0.90;;;0.90;;
43952;SDS011;29608;49.400;11.010;2022-11-15T14:03:07;1.08;;;0.80;;
43952;SDS011;29608;49.400;11.010;2022-11-15T14:05:45;1.60;;;0.80;;
43952;SDS011;29608;49.400;11.010;2022-11-15T14:08:32;1.27;;;1.00;;
43952;SDS011;29608;49.400;11.010;2022-11-15T14:11:05;1.00;;;0.98;;
43952;SDS011;29608;49.400;11.010;2022-11-15T14:13:39;1.20;;;1.20;;
43952;SDS011;29608;49.400;11.010;2022-11-15T14:16:12;0.80;;;0.80;;
43952;SDS011;29608;49.400;11.010;2022-11-15T14:18:45;0.88;;;0.88;;
43952;SDS011;29608;49.400;11.010;2022-11-15T14:21:15;0.82;;;0.82;;
43952;SDS011;29608;49.400;11.010;2022-11-15T14:23:45;0.90;;;0.90;;
43952;SDS011;29608;49.400;11.010;2022-11-15T14:26:27;0.60;;;0.60;;
43952;SDS011;29608;49.400;11.010;2022-11-15T14:29:00;1.60;;;1.50;;
43952;SDS011;29608;49.400;11.010;2022-11-15T14:31:50;0.70;;;0.70;;
43952;SDS011;29608;49.400;11.010;2022-11-15T14:34:18;2.88;;;1.02;;
43952;SDS011;29608;49.400;11.010;2022-11-15T14:36:48;0.90;;;0.90;;
43952;SDS011;29608;49.400;11.010;2022-11-15T14:39:16;1.92;;;1.52;;
43952;SDS011;29608;49.400;11.010;2022-11-15T14:41:44;1.05;;;1.00;;
43952;SDS011;29608;49.400;11.010;2022-11-15T14:44:13;2.38;;;0.95;;
43952;SDS011;29608;49.400;11.010;2022-11-15T14:46:44;1.10;;;1.00;;
43952;SDS011;29608;49.400;11.010;2022-11-15T14:49:12;1.00;;;1.00;;
43952;SDS011;29608;49.400;11.010;2022-11-15T14:51:42;1.05;;;1.00;;
43952;SDS011;29608;49.400;11.010;2022-11-15T14:54:10;1.10;;;1.00;;
43952;SDS011;29608;49.400;11.010;2022-11-15T14:56:38;0.70;;;0.70;;
43952;SDS011;29608;49.400;11.010;2022-11-15T14:59:06;3.22;;;0.90;;
43952;SDS011;29608;49.400;11.010;2022-11-15T15:01:35;0.88;;;0.88;;
43952;SDS011;29608;49.400;11.010;2022-11-15T15:04:03;0.98;;;0.88;;
43952;SDS011;29608;49.400;11.010;2022-11-15T15:06:31;0.85;;;0.85;;
43952;SDS011;29608;49.400;11.010;2022-11-15T15:08:59;1.13;;;1.10;;
43952;SDS011;29608;49.400;11.010;2022-11-15T15:11:28;1.00;;;1.00;;
43952;SDS011;29608;49.400;11.010;2022-11-15T15:13:58;0.82;;;0.82;;
43952;SDS011;29608;49.400;11.010;2022-11-15T15:16:27;11.70;;;1.58;;
43952;SDS011;29608;49.400;11.010;2022-11-15T15:18:56;0.90;;;0.90;;
43952;SDS011;29608;49.400;11.010;2022-11-15T15:21:24;0.80;;;0.80;;
43952;SDS011;29608;49.400;11.010;2022-11-15T15:24:02;1.30;;;1.00;;
43952;SDS011;29608;49.400;11.010;2022-11-15T15:26:30;0.98;;;0.98;;
43952;SDS011;29608;49.400;11.010;2022-11-15T15:31:29;1.20;;;1.08;;
43952;SDS011;29608;49.400;11.010;2022-11-15T15:34:00;1.00;;;1.00;;
43952;SDS011;29608;49.400;11.010;2022-11-15T15:36:28;0.73;;;0.73;;
43952;SDS011;29608;49.400;11.010;2022-11-15T15:38:55;0.80;;;0.80;;
43952;SDS011;29608;49.400;11.010;2022-11-15T15:41:23;3.13;;;0.80;;
43952;SDS011;29608;49.400;11.010;2022-11-15T15:43:51;0.65;;;0.65;;
43952;SDS011;29608;49.400;11.010;2022-11-15T15:46:19;0.90;;;0.90;;
43952;SDS011;29608;49.400;11.010;2022-11-15T15:48:47;0.70;;;0.70;;